createdAt,value
2022-12-15T00:05:22.708Z,99190.76
2022-12-15T00:10:44.150Z,99191.13
2022-12-15T00:16:06.790Z,99188.05
2022-12-15T00:21:28.846Z,99187.02
2022-12-15T00:26:50.365Z,99179.14
2022-12-15T00:32:11.800Z,99177.80
2022-12-15T00:37:33.180Z,99174.40
2022-12-15T00:42:36.029Z,99168.93
2022-12-15T00:47:38.851Z,99166.17
2022-12-15T00:53:00.361Z,99161.03
2022-12-15T00:58:21.970Z,99160.73
2022-12-15T01:03:43.945Z,99161.42
2022-12-15T01:09:05.616Z,99165.21
2022-12-15T01:14:27.468Z,99158.65
2022-12-15T01:19:48.697Z,99155.00
2022-12-15T01:24:52.519Z,99159.50
2022-12-15T01:29:55.344Z,99153.40
2022-12-15T01:34:58.142Z,99150.02
2022-12-15T01:40:19.828Z,99142.83
2022-12-15T01:45:28.845Z,99148.83
2022-12-15T01:50:34.483Z,99146.59
2022-12-15T01:55:41.380Z,99142.15
2022-12-15T02:00:44.432Z,99145.00
2022-12-15T02:05:47.898Z,99150.76
2022-12-15T02:10:50.675Z,99146.80
2022-12-15T02:16:08.486Z,99150.74
2022-12-15T02:21:37.807Z,99145.20
2022-12-15T02:27:04.702Z,99139.73
2022-12-15T02:32:14.277Z,99135.95
2022-12-15T02:37:17.037Z,99138.42
2022-12-15T02:42:20.319Z,99129.96
2022-12-15T02:47:53.746Z,99136.68
2022-12-15T02:53:11.637Z,99141.80
2022-12-15T02:58:40.184Z,99135.77
2022-12-15T03:03:45.612Z,99130.86
2022-12-15T03:08:48.387Z,99137.14
2022-12-15T03:13:52.564Z,99138.03
2022-12-15T03:18:55.441Z,99133.48
2022-12-15T03:23:58.280Z,99129.25
2022-12-15T03:29:01.134Z,99121.79
2022-12-15T03:34:03.954Z,99117.94
2022-12-15T03:39:06.946Z,99124.52
2022-12-15T03:44:09.986Z,99122.50
2022-12-15T03:49:12.772Z,99129.30
2022-12-15T03:54:15.642Z,99134.88
2022-12-15T03:59:18.467Z,99133.73
2022-12-15T04:04:21.320Z,99138.08
2022-12-15T04:09:24.231Z,99137.61
2022-12-15T04:14:27.117Z,99145.54
2022-12-15T04:19:48.833Z,99144.00
2022-12-15T04:25:10.542Z,99143.79
2022-12-15T04:30:32.561Z,99147.27
2022-12-15T04:35:54.385Z,99153.40
2022-12-15T04:41:16.265Z,99150.41
2022-12-15T04:46:37.456Z,99147.38
2022-12-15T04:51:59.028Z,99142.73
2022-12-15T04:57:20.402Z,99145.80
2022-12-15T05:02:41.693Z,99155.04
2022-12-15T05:08:03.551Z,99161.54
2022-12-15T05:13:26.999Z,99155.40
2022-12-15T05:18:48.603Z,99149.92
2022-12-15T05:24:10.513Z,99147.73
2022-12-15T05:29:32.227Z,99148.20
2022-12-15T05:34:36.780Z,99150.40
2022-12-15T05:39:39.626Z,99150.55
2022-12-15T05:44:43.382Z,99162.58
2022-12-15T05:49:46.136Z,99168.97
2022-12-15T05:54:48.896Z,99171.79
2022-12-15T05:59:51.664Z,99184.72
2022-12-15T06:04:54.472Z,99199.71
2022-12-15T06:09:57.299Z,99199.99
2022-12-15T06:15:00.122Z,99214.14
2022-12-15T06:20:04.206Z,99228.84
2022-12-15T06:25:07.638Z,99238.03
2022-12-15T06:30:11.094Z,99242.52
2022-12-15T06:35:13.924Z,99239.92
2022-12-15T06:40:16.889Z,99251.17
2022-12-15T06:45:19.626Z,99248.91
2022-12-15T06:50:22.399Z,99255.48
2022-12-15T06:55:25.231Z,99257.77
2022-12-15T07:00:30.877Z,99261.23
2022-12-15T07:05:33.662Z,99270.54
2022-12-15T07:10:47.225Z,99275.65
2022-12-15T07:15:50.249Z,99289.02
2022-12-15T07:20:54.444Z,99294.73
2022-12-15T07:25:57.608Z,99308.46
2022-12-15T07:31:05.886Z,99321.91
2022-12-15T07:36:08.977Z,99334.45
2022-12-15T07:41:11.829Z,99335.61
2022-12-15T07:46:15.620Z,99342.33
2022-12-15T07:51:21.498Z,99356.06
2022-12-15T07:56:25.144Z,99358.48
2022-12-15T08:01:29.097Z,99362.57
2022-12-15T08:06:32.117Z,99370.48
2022-12-15T08:11:35.390Z,99370.79
2022-12-15T08:17:00.125Z,99372.41
2022-12-15T08:22:07.191Z,99383.95
2022-12-15T08:27:11.637Z,99397.77
2022-12-15T08:32:15.849Z,99407.52
2022-12-15T08:37:22.691Z,99415.16
2022-12-15T08:42:26.747Z,99421.58
2022-12-15T08:47:31.073Z,99427.06
2022-12-15T08:52:34.932Z,99429.81
2022-12-15T08:57:38.926Z,99429.67
2022-12-15T09:02:42.046Z,99432.45
2022-12-15T09:07:44.970Z,99436.48
2022-12-15T09:12:51.564Z,99445.66
2022-12-15T09:17:54.659Z,99439.92
2022-12-15T09:22:58.013Z,99440.66
2022-12-15T09:28:01.544Z,99440.29
2022-12-15T09:33:04.398Z,99447.73
2022-12-15T09:38:07.283Z,99453.23
2022-12-15T09:43:34.028Z,99455.48
2022-12-15T09:48:42.119Z,99455.91
2022-12-15T09:53:54.529Z,99450.14
2022-12-15T09:59:23.393Z,99445.54
2022-12-15T10:04:43.907Z,99454.62
2022-12-15T10:09:46.733Z,99450.88
2022-12-15T10:15:12.346Z,99455.52
2022-12-15T10:20:29.458Z,99456.86
2022-12-15T10:25:32.664Z,99457.60
2022-12-15T10:30:38.847Z,99463.41
2022-12-15T10:35:44.229Z,99468.52
2022-12-15T10:41:26.023Z,99472.91
2022-12-15T10:46:32.957Z,99481.98
2022-12-15T10:51:37.718Z,99487.95
2022-12-15T10:56:58.924Z,99483.64
2022-12-15T11:02:23.808Z,99484.22
2022-12-15T11:07:52.964Z,99487.04
2022-12-15T11:12:59.036Z,99499.05
2022-12-15T11:18:24.685Z,99505.36
2022-12-15T11:24:07.204Z,99513.13
2022-12-15T11:29:52.382Z,99510.52
2022-12-15T11:34:57.114Z,99505.36
2022-12-15T11:40:50.613Z,99508.99
2022-12-15T11:45:59.641Z,99511.45
2022-12-15T11:51:06.928Z,99514.87
2022-12-15T11:56:49.082Z,99522.83
2022-12-15T12:02:14.716Z,99522.77
2022-12-15T12:07:41.776Z,99527.02
2022-12-15T12:13:00.084Z,99538.77
2022-12-15T12:18:18.052Z,99551.13
2022-12-15T12:24:00.425Z,99562.80
2022-12-15T12:29:15.514Z,99573.56
2022-12-15T12:34:26.478Z,99576.26
2022-12-15T12:39:32.170Z,99583.30
2022-12-15T12:44:38.590Z,99593.22
2022-12-15T12:49:52.312Z,99591.06
2022-12-15T12:55:16.576Z,99595.48
2022-12-15T13:00:24.049Z,99601.37
2022-12-15T13:05:38.160Z,99604.88
2022-12-15T13:10:47.374Z,99608.21
2022-12-15T13:16:05.167Z,99609.96
2022-12-15T13:21:36.175Z,99616.86
2022-12-15T13:26:45.153Z,99634.15
2022-12-15T13:31:53.369Z,99634.11
2022-12-15T13:36:58.080Z,99649.08
2022-12-15T13:42:32.679Z,99659.65
2022-12-15T13:47:31.102Z,99665.69
2022-12-15T13:53:17.719Z,99661.86
2022-12-15T13:58:21.799Z,99671.69
2022-12-15T14:03:24.968Z,99672.73
2022-12-15T14:08:31.014Z,99672.88
2022-12-15T14:13:37.654Z,99677.48
2022-12-15T14:18:44.185Z,99682.09
2022-12-15T14:29:25.265Z,99699.66
2022-12-15T14:34:33.267Z,99700.04
2022-12-15T14:39:43.472Z,99706.44
2022-12-15T14:44:51.495Z,99712.52
2022-12-15T14:50:13.047Z,99719.12
2022-12-15T14:55:26.760Z,99726.79
2022-12-15T15:00:34.711Z,99730.23
2022-12-15T15:05:40.651Z,99729.83
2022-12-15T15:10:44.006Z,99732.95
2022-12-15T15:16:00.649Z,99731.80
2022-12-15T15:21:07.191Z,99742.94
2022-12-15T15:26:10.682Z,99752.54
2022-12-15T15:31:25.406Z,99753.02
2022-12-15T15:36:37.418Z,99758.59
2022-12-15T15:41:40.297Z,99763.77
2022-12-15T15:46:52.587Z,99765.74
2022-12-15T15:51:56.835Z,99772.58
2022-12-15T15:56:59.634Z,99776.07
2022-12-15T16:02:02.592Z,99782.30
2022-12-15T16:07:07.412Z,99785.77
2022-12-15T16:12:25.050Z,99782.33
2022-12-15T16:17:27.929Z,99773.85
2022-12-15T16:22:33.803Z,99775.77
2022-12-15T16:27:36.721Z,99770.08
2022-12-15T16:32:39.552Z,99772.22
2022-12-15T16:37:48.187Z,99766.22
2022-12-15T16:42:55.405Z,99755.55
2022-12-15T16:47:58.644Z,99768.29
2022-12-15T16:53:02.934Z,99774.02
2022-12-15T16:58:07.070Z,99775.23
2022-12-15T17:03:20.154Z,99787.20
2022-12-15T17:08:27.081Z,99793.88
2022-12-15T17:13:45.641Z,99796.00
2022-12-15T17:18:53.647Z,99797.88
2022-12-15T17:23:59.970Z,99805.77
2022-12-15T17:29:09.669Z,99813.65
2022-12-15T17:34:36.113Z,99819.73
2022-12-15T17:39:38.953Z,99831.34
2022-12-15T17:44:42.284Z,99837.91
2022-12-15T17:49:46.971Z,99835.73
2022-12-15T17:54:52.231Z,99833.48
2022-12-15T17:59:55.004Z,99836.59
2022-12-15T18:04:57.792Z,99833.07
2022-12-15T18:10:01.038Z,99836.89
2022-12-15T18:15:19.329Z,99835.38
2022-12-15T18:20:22.229Z,99834.98
2022-12-15T18:25:29.716Z,99843.60
2022-12-15T18:30:32.389Z,99855.79
2022-12-15T18:35:41.736Z,99862.13
2022-12-15T18:40:52.083Z,99881.00
2022-12-15T18:45:55.617Z,99887.86
2022-12-15T18:51:00.775Z,99892.96
2022-12-15T18:56:06.979Z,99890.88
2022-12-15T19:01:11.049Z,99890.14
2022-12-15T19:06:34.904Z,99894.95
2022-12-15T19:11:37.804Z,99897.11
2022-12-15T19:16:59.201Z,99899.98
2022-12-15T19:22:21.165Z,99910.78
2022-12-15T19:27:26.623Z,99914.08
2022-12-15T19:32:29.754Z,99917.73
2022-12-15T19:37:33.501Z,99918.53
2022-12-15T19:42:40.930Z,99916.60
2022-12-15T19:47:44.472Z,99919.32
2022-12-15T19:52:50.983Z,99923.43
2022-12-15T19:57:53.911Z,99929.88
2022-12-15T20:02:56.983Z,99935.86
2022-12-15T20:08:00.586Z,99925.48
2022-12-15T20:13:03.520Z,99926.28
2022-12-15T20:18:06.440Z,99927.52
2022-12-15T20:23:23.792Z,99914.34
2022-12-15T20:28:30.008Z,99912.67
2022-12-15T20:33:34.899Z,99920.66
2022-12-15T20:38:38.086Z,99933.82
2022-12-15T20:43:40.968Z,99935.52
2022-12-15T20:48:45.017Z,99942.23
2022-12-15T20:53:48.478Z,99955.45
2022-12-15T20:58:53.685Z,99953.30
2022-12-15T21:04:00.236Z,99953.38
2022-12-15T21:09:03.407Z,99957.88
2022-12-15T21:14:14.115Z,99960.44
2022-12-15T21:19:21.703Z,99964.32
2022-12-15T21:24:27.614Z,99981.48
2022-12-15T21:29:32.851Z,99983.80
2022-12-15T21:34:36.268Z,99986.38
2022-12-15T21:39:39.700Z,99986.45
2022-12-15T21:44:44.351Z,99996.45
2022-12-15T21:49:47.123Z,99998.25
2022-12-15T21:54:49.951Z,100005.10
2022-12-15T21:59:53.334Z,100009.11
2022-12-15T22:04:56.206Z,100007.13
2022-12-15T22:09:59.131Z,100011.63
2022-12-15T22:15:03.806Z,100014.09
2022-12-15T22:20:18.918Z,100017.48
2022-12-15T22:25:24.833Z,100023.31
2022-12-15T22:30:28.192Z,100023.17
2022-12-15T22:35:31.008Z,100025.02
2022-12-15T22:40:34.380Z,100029.04
2022-12-15T22:45:41.239Z,100035.34
2022-12-15T22:50:45.789Z,100022.02
2022-12-15T22:55:51.025Z,100016.27
2022-12-15T23:00:57.702Z,100011.24
2022-12-15T23:06:02.286Z,100012.75
2022-12-15T23:11:24.070Z,100016.91
2022-12-15T23:16:26.956Z,100010.98
2022-12-15T23:21:30.686Z,100011.62
2022-12-15T23:26:34.192Z,100017.81
2022-12-15T23:31:40.322Z,100021.98
2022-12-15T23:36:43.230Z,100025.82
2022-12-15T23:41:46.058Z,100017.93
2022-12-15T23:46:49.091Z,100016.44
2022-12-15T23:51:52.155Z,100013.68
2022-12-15T23:56:54.932Z,100014.20
